Terminal Aerodrome Forecast
Issued by NWS

Current Version | Previous Version | Graphics & Text | Print | Product List | Glossary On
Versions: 1 2 3 4 5 6 7 8 9 10 11 12 13 14 15
000
FTUS41 KRNK 181140
TAFLWB
TAF
KLWB 181140Z 1812/1912 00000KT P6SM SKC
      TEMPO 1812/1813 2SM BR SCT001
     FM181400 VRB03KT P6SM SCT250=

USA.gov is the U.S. government's official web portal to all federal, state and local government web resources and services.